sensor_id;sensor_type;location;lat;lon;timestamp;P1;durP1;ratioP1;P2;durP2;ratioP2
23266;SDS011;11802;53.160;8.214;2024-01-30T00:01:10;24.40;;;14.83;;
23266;SDS011;11802;53.160;8.214;2024-01-30T00:03:36;20.40;;;14.13;;
23266;SDS011;11802;53.160;8.214;2024-01-30T00:06:02;23.03;;;14.73;;
23266;SDS011;11802;53.160;8.214;2024-01-30T00:08:28;23.30;;;14.63;;
23266;SDS011;11802;53.160;8.214;2024-01-30T00:10:54;21.80;;;14.67;;
23266;SDS011;11802;53.160;8.214;2024-01-30T00:13:20;23.40;;;15.83;;
23266;SDS011;11802;53.160;8.214;2024-01-30T00:15:45;27.47;;;14.70;;
23266;SDS011;11802;53.160;8.214;2024-01-30T00:18:11;22.33;;;15.20;;
23266;SDS011;11802;53.160;8.214;2024-01-30T00:20:37;24.60;;;15.10;;
23266;SDS011;11802;53.160;8.214;2024-01-30T00:23:03;23.00;;;14.63;;
23266;SDS011;11802;53.160;8.214;2024-01-30T00:25:29;24.13;;;14.93;;
23266;SDS011;11802;53.160;8.214;2024-01-30T00:27:55;24.57;;;15.70;;
23266;SDS011;11802;53.160;8.214;2024-01-30T00:30:20;25.30;;;15.67;;
23266;SDS011;11802;53.160;8.214;2024-01-30T00:32:46;24.77;;;15.73;;
23266;SDS011;11802;53.160;8.214;2024-01-30T00:35:12;22.47;;;15.23;;
23266;SDS011;11802;53.160;8.214;2024-01-30T00:37:37;21.60;;;14.70;;
23266;SDS011;11802;53.160;8.214;2024-01-30T00:40:03;22.80;;;16.03;;
23266;SDS011;11802;53.160;8.214;2024-01-30T00:42:30;23.83;;;16.03;;
23266;SDS011;11802;53.160;8.214;2024-01-30T00:44:56;23.37;;;15.30;;
23266;SDS011;11802;53.160;8.214;2024-01-30T00:47:22;21.83;;;14.80;;
23266;SDS011;11802;53.160;8.214;2024-01-30T00:49:48;22.97;;;15.20;;
23266;SDS011;11802;53.160;8.214;2024-01-30T00:52:14;24.37;;;15.17;;
23266;SDS011;11802;53.160;8.214;2024-01-30T00:54:40;20.60;;;14.23;;
23266;SDS011;11802;53.160;8.214;2024-01-30T00:57:06;20.33;;;14.10;;
23266;SDS011;11802;53.160;8.214;2024-01-30T00:59:32;21.10;;;14.80;;
23266;SDS011;11802;53.160;8.214;2024-01-30T01:01:57;23.90;;;14.73;;
23266;SDS011;11802;53.160;8.214;2024-01-30T01:04:23;20.80;;;14.93;;
23266;SDS011;11802;53.160;8.214;2024-01-30T01:06:48;20.23;;;14.03;;
23266;SDS011;11802;53.160;8.214;2024-01-30T01:09:14;22.83;;;15.97;;
23266;SDS011;11802;53.160;8.214;2024-01-30T01:11:40;25.20;;;15.77;;
23266;SDS011;11802;53.160;8.214;2024-01-30T01:14:05;23.57;;;15.27;;
23266;SDS011;11802;53.160;8.214;2024-01-30T01:16:31;23.77;;;16.33;;
23266;SDS011;11802;53.160;8.214;2024-01-30T01:18:57;22.27;;;14.97;;
23266;SDS011;11802;53.160;8.214;2024-01-30T01:21:22;21.73;;;15.17;;
23266;SDS011;11802;53.160;8.214;2024-01-30T01:23:48;21.53;;;15.13;;
23266;SDS011;11802;53.160;8.214;2024-01-30T01:26:13;22.77;;;14.53;;
23266;SDS011;11802;53.160;8.214;2024-01-30T01:28:40;23.97;;;14.93;;
23266;SDS011;11802;53.160;8.214;2024-01-30T01:31:06;21.43;;;14.57;;
23266;SDS011;11802;53.160;8.214;2024-01-30T01:33:32;21.47;;;15.13;;
23266;SDS011;11802;53.160;8.214;2024-01-30T01:35:58;24.20;;;14.67;;
23266;SDS011;11802;53.160;8.214;2024-01-30T01:38:24;20.47;;;14.93;;
23266;SDS011;11802;53.160;8.214;2024-01-30T01:40:50;21.30;;;14.60;;
23266;SDS011;11802;53.160;8.214;2024-01-30T01:43:16;19.73;;;13.57;;
23266;SDS011;11802;53.160;8.214;2024-01-30T01:45:41;21.33;;;14.97;;
23266;SDS011;11802;53.160;8.214;2024-01-30T01:48:07;21.33;;;14.77;;
23266;SDS011;11802;53.160;8.214;2024-01-30T01:50:34;21.77;;;15.00;;
23266;SDS011;11802;53.160;8.214;2024-01-30T01:53:00;18.23;;;13.70;;
23266;SDS011;11802;53.160;8.214;2024-01-30T01:55:26;22.73;;;13.10;;
23266;SDS011;11802;53.160;8.214;2024-01-30T01:57:54;23.03;;;14.93;;
23266;SDS011;11802;53.160;8.214;2024-01-30T02:00:20;26.07;;;15.23;;
23266;SDS011;11802;53.160;8.214;2024-01-30T02:02:45;21.13;;;14.70;;
23266;SDS011;11802;53.160;8.214;2024-01-30T02:05:12;21.90;;;16.23;;
23266;SDS011;11802;53.160;8.214;2024-01-30T02:07:38;25.60;;;16.10;;
23266;SDS011;11802;53.160;8.214;2024-01-30T02:10:04;25.23;;;15.70;;
23266;SDS011;11802;53.160;8.214;2024-01-30T02:12:30;23.97;;;15.50;;
23266;SDS011;11802;53.160;8.214;2024-01-30T02:14:55;23.47;;;15.20;;
23266;SDS011;11802;53.160;8.214;2024-01-30T02:17:21;22.50;;;15.50;;
23266;SDS011;11802;53.160;8.214;2024-01-30T02:19:48;21.67;;;15.50;;
23266;SDS011;11802;53.160;8.214;2024-01-30T02:22:14;20.97;;;15.67;;
23266;SDS011;11802;53.160;8.214;2024-01-30T02:24:40;23.23;;;14.93;;
23266;SDS011;11802;53.160;8.214;2024-01-30T02:27:05;24.03;;;15.73;;
23266;SDS011;11802;53.160;8.214;2024-01-30T02:29:31;23.10;;;15.30;;
23266;SDS011;11802;53.160;8.214;2024-01-30T02:31:56;24.20;;;15.47;;
23266;SDS011;11802;53.160;8.214;2024-01-30T02:34:22;22.97;;;15.20;;
23266;SDS011;11802;53.160;8.214;2024-01-30T02:36:48;23.50;;;14.87;;
23266;SDS011;11802;53.160;8.214;2024-01-30T02:39:14;22.03;;;15.57;;
23266;SDS011;11802;53.160;8.214;2024-01-30T02:41:39;21.03;;;14.33;;
23266;SDS011;11802;53.160;8.214;2024-01-30T02:44:05;27.03;;;16.60;;
23266;SDS011;11802;53.160;8.214;2024-01-30T02:46:30;23.30;;;17.13;;
23266;SDS011;11802;53.160;8.214;2024-01-30T02:48:56;23.27;;;15.83;;
23266;SDS011;11802;53.160;8.214;2024-01-30T02:51:22;23.30;;;16.50;;
23266;SDS011;11802;53.160;8.214;2024-01-30T02:53:47;23.93;;;15.97;;
23266;SDS011;11802;53.160;8.214;2024-01-30T02:56:13;23.23;;;16.73;;
23266;SDS011;11802;53.160;8.214;2024-01-30T02:58:39;23.23;;;14.70;;
23266;SDS011;11802;53.160;8.214;2024-01-30T03:01:05;25.60;;;17.00;;
23266;SDS011;11802;53.160;8.214;2024-01-30T03:03:31;21.80;;;15.23;;
23266;SDS011;11802;53.160;8.214;2024-01-30T03:05:57;22.43;;;16.43;;
23266;SDS011;11802;53.160;8.214;2024-01-30T03:08:22;24.87;;;16.77;;
23266;SDS011;11802;53.160;8.214;2024-01-30T03:10:48;23.67;;;16.10;;
23266;SDS011;11802;53.160;8.214;2024-01-30T03:13:14;24.13;;;16.63;;
23266;SDS011;11802;53.160;8.214;2024-01-30T03:15:39;23.33;;;15.33;;
23266;SDS011;11802;53.160;8.214;2024-01-30T03:18:05;23.20;;;16.33;;
23266;SDS011;11802;53.160;8.214;2024-01-30T03:20:30;27.43;;;15.87;;
23266;SDS011;11802;53.160;8.214;2024-01-30T03:22:56;25.07;;;16.57;;
23266;SDS011;11802;53.160;8.214;2024-01-30T03:25:24;24.93;;;15.50;;
23266;SDS011;11802;53.160;8.214;2024-01-30T03:27:50;24.53;;;15.90;;
23266;SDS011;11802;53.160;8.214;2024-01-30T03:30:15;22.27;;;14.67;;
23266;SDS011;11802;53.160;8.214;2024-01-30T03:32:41;20.80;;;15.03;;
23266;SDS011;11802;53.160;8.214;2024-01-30T03:35:06;22.50;;;16.37;;
23266;SDS011;11802;53.160;8.214;2024-01-30T03:37:32;22.40;;;15.67;;
23266;SDS011;11802;53.160;8.214;2024-01-30T03:39:58;23.50;;;14.83;;
23266;SDS011;11802;53.160;8.214;2024-01-30T03:42:23;22.30;;;15.83;;
23266;SDS011;11802;53.160;8.214;2024-01-30T03:44:49;23.00;;;15.20;;
23266;SDS011;11802;53.160;8.214;2024-01-30T03:47:18;23.33;;;16.23;;
23266;SDS011;11802;53.160;8.214;2024-01-30T03:49:44;21.33;;;15.27;;
23266;SDS011;11802;53.160;8.214;2024-01-30T03:52:10;21.57;;;15.00;;
23266;SDS011;11802;53.160;8.214;2024-01-30T03:54:35;20.80;;;14.70;;
23266;SDS011;11802;53.160;8.214;2024-01-30T03:57:01;21.83;;;15.63;;
23266;SDS011;11802;53.160;8.214;2024-01-30T03:59:27;24.07;;;16.03;;
23266;SDS011;11802;53.160;8.214;2024-01-30T04:01:52;27.07;;;15.43;;
23266;SDS011;11802;53.160;8.214;2024-01-30T04:04:18;22.17;;;14.60;;
23266;SDS011;11802;53.160;8.214;2024-01-30T04:06:44;24.77;;;17.03;;
23266;SDS011;11802;53.160;8.214;2024-01-30T04:09:10;26.07;;;16.27;;
23266;SDS011;11802;53.160;8.214;2024-01-30T04:11:36;22.57;;;15.03;;
23266;SDS011;11802;53.160;8.214;2024-01-30T04:14:02;22.50;;;14.90;;
23266;SDS011;11802;53.160;8.214;2024-01-30T04:16:27;24.13;;;15.97;;
23266;SDS011;11802;53.160;8.214;2024-01-30T04:18:53;23.20;;;15.50;;
23266;SDS011;11802;53.160;8.214;2024-01-30T04:21:20;24.07;;;16.03;;
23266;SDS011;11802;53.160;8.214;2024-01-30T04:23:47;22.37;;;14.90;;
23266;SDS011;11802;53.160;8.214;2024-01-30T04:26:13;22.57;;;16.30;;
23266;SDS011;11802;53.160;8.214;2024-01-30T04:28:41;21.63;;;14.97;;
23266;SDS011;11802;53.160;8.214;2024-01-30T04:31:06;25.07;;;17.17;;
23266;SDS011;11802;53.160;8.214;2024-01-30T04:33:32;23.93;;;17.00;;
23266;SDS011;11802;53.160;8.214;2024-01-30T04:35:58;24.27;;;16.73;;
23266;SDS011;11802;53.160;8.214;2024-01-30T04:38:23;23.40;;;16.47;;
23266;SDS011;11802;53.160;8.214;2024-01-30T04:40:49;24.70;;;15.93;;
23266;SDS011;11802;53.160;8.214;2024-01-30T04:43:14;23.97;;;15.10;;
23266;SDS011;11802;53.160;8.214;2024-01-30T04:45:40;22.30;;;15.30;;
23266;SDS011;11802;53.160;8.214;2024-01-30T04:48:06;27.20;;;17.23;;
23266;SDS011;11802;53.160;8.214;2024-01-30T04:50:32;26.17;;;16.20;;
23266;SDS011;11802;53.160;8.214;2024-01-30T04:52:57;27.20;;;16.50;;
23266;SDS011;11802;53.160;8.214;2024-01-30T04:55:23;26.53;;;17.47;;
23266;SDS011;11802;53.160;8.214;2024-01-30T04:57:49;25.33;;;16.80;;
23266;SDS011;11802;53.160;8.214;2024-01-30T05:00:14;24.67;;;16.23;;
23266;SDS011;11802;53.160;8.214;2024-01-30T05:02:40;28.30;;;16.50;;
23266;SDS011;11802;53.160;8.214;2024-01-30T05:05:06;24.93;;;16.77;;
23266;SDS011;11802;53.160;8.214;2024-01-30T05:07:32;21.70;;;15.30;;
23266;SDS011;11802;53.160;8.214;2024-01-30T05:09:58;22.03;;;15.90;;
23266;SDS011;11802;53.160;8.214;2024-01-30T05:12:24;20.83;;;15.00;;
23266;SDS011;11802;53.160;8.214;2024-01-30T05:14:49;23.13;;;15.83;;
23266;SDS011;11802;53.160;8.214;2024-01-30T05:17:15;24.57;;;15.27;;
23266;SDS011;11802;53.160;8.214;2024-01-30T05:19:40;22.70;;;15.60;;
23266;SDS011;11802;53.160;8.214;2024-01-30T05:22:06;25.77;;;16.63;;
23266;SDS011;11802;53.160;8.214;2024-01-30T05:24:32;23.17;;;15.93;;
23266;SDS011;11802;53.160;8.214;2024-01-30T05:26:57;24.13;;;16.50;;
23266;SDS011;11802;53.160;8.214;2024-01-30T05:29:23;21.43;;;15.00;;
23266;SDS011;11802;53.160;8.214;2024-01-30T05:31:49;25.50;;;15.97;;
23266;SDS011;11802;53.160;8.214;2024-01-30T05:34:15;21.97;;;15.80;;
23266;SDS011;11802;53.160;8.214;2024-01-30T05:36:41;21.10;;;14.43;;
23266;SDS011;11802;53.160;8.214;2024-01-30T05:39:06;27.10;;;15.63;;
23266;SDS011;11802;53.160;8.214;2024-01-30T05:41:32;22.63;;;15.20;;
23266;SDS011;11802;53.160;8.214;2024-01-30T05:43:58;20.50;;;13.57;;
23266;SDS011;11802;53.160;8.214;2024-01-30T05:46:23;24.33;;;16.10;;
23266;SDS011;11802;53.160;8.214;2024-01-30T05:48:49;23.07;;;14.67;;
23266;SDS011;11802;53.160;8.214;2024-01-30T05:51:14;24.53;;;15.40;;
23266;SDS011;11802;53.160;8.214;2024-01-30T05:53:40;25.10;;;15.53;;
23266;SDS011;11802;53.160;8.214;2024-01-30T05:56:05;22.30;;;15.03;;
23266;SDS011;11802;53.160;8.214;2024-01-30T05:58:31;23.27;;;14.83;;
23266;SDS011;11802;53.160;8.214;2024-01-30T06:00:57;20.23;;;14.70;;
23266;SDS011;11802;53.160;8.214;2024-01-30T06:03:23;23.50;;;15.53;;
23266;SDS011;11802;53.160;8.214;2024-01-30T06:05:48;21.00;;;14.63;;
23266;SDS011;11802;53.160;8.214;2024-01-30T06:08:14;21.87;;;13.97;;
23266;SDS011;11802;53.160;8.214;2024-01-30T06:10:39;22.30;;;15.40;;
23266;SDS011;11802;53.160;8.214;2024-01-30T06:13:05;23.13;;;16.67;;
23266;SDS011;11802;53.160;8.214;2024-01-30T06:15:31;21.37;;;14.40;;
23266;SDS011;11802;53.160;8.214;2024-01-30T06:17:57;23.33;;;15.53;;
23266;SDS011;11802;53.160;8.214;2024-01-30T06:20:23;24.47;;;15.30;;
23266;SDS011;11802;53.160;8.214;2024-01-30T06:22:49;21.83;;;15.03;;
23266;SDS011;11802;53.160;8.214;2024-01-30T06:25:14;22.53;;;14.43;;
23266;SDS011;11802;53.160;8.214;2024-01-30T06:27:41;22.90;;;16.07;;
23266;SDS011;11802;53.160;8.214;2024-01-30T06:30:07;24.17;;;15.37;;
23266;SDS011;11802;53.160;8.214;2024-01-30T06:32:33;22.30;;;15.30;;
23266;SDS011;11802;53.160;8.214;2024-01-30T06:35:00;22.33;;;15.27;;
23266;SDS011;11802;53.160;8.214;2024-01-30T06:37:27;21.20;;;16.10;;
23266;SDS011;11802;53.160;8.214;2024-01-30T06:39:52;24.53;;;16.77;;
23266;SDS011;11802;53.160;8.214;2024-01-30T06:42:18;23.00;;;14.97;;
23266;SDS011;11802;53.160;8.214;2024-01-30T06:44:44;25.07;;;16.03;;
23266;SDS011;11802;53.160;8.214;2024-01-30T06:47:10;22.03;;;15.10;;
23266;SDS011;11802;53.160;8.214;2024-01-30T06:49:35;22.10;;;14.67;;
23266;SDS011;11802;53.160;8.214;2024-01-30T06:52:04;24.33;;;15.50;;
23266;SDS011;11802;53.160;8.214;2024-01-30T06:54:31;28.60;;;16.67;;
23266;SDS011;11802;53.160;8.214;2024-01-30T06:56:57;23.70;;;16.63;;
23266;SDS011;11802;53.160;8.214;2024-01-30T06:59:28;21.03;;;15.73;;
23266;SDS011;11802;53.160;8.214;2024-01-30T07:01:53;21.40;;;15.50;;
23266;SDS011;11802;53.160;8.214;2024-01-30T07:04:19;29.03;;;14.73;;
23266;SDS011;11802;53.160;8.214;2024-01-30T07:06:45;21.23;;;14.67;;
23266;SDS011;11802;53.160;8.214;2024-01-30T07:09:10;24.67;;;14.13;;
23266;SDS011;11802;53.160;8.214;2024-01-30T07:11:37;21.53;;;15.03;;
23266;SDS011;11802;53.160;8.214;2024-01-30T07:14:02;22.47;;;14.27;;
23266;SDS011;11802;53.160;8.214;2024-01-30T07:16:31;21.67;;;14.13;;
23266;SDS011;11802;53.160;8.214;2024-01-30T07:18:56;22.37;;;15.20;;
23266;SDS011;11802;53.160;8.214;2024-01-30T07:21:22;21.03;;;15.20;;
23266;SDS011;11802;53.160;8.214;2024-01-30T07:23:52;23.07;;;14.13;;
23266;SDS011;11802;53.160;8.214;2024-01-30T07:26:21;21.23;;;14.80;;
23266;SDS011;11802;53.160;8.214;2024-01-30T07:28:47;21.40;;;14.63;;
23266;SDS011;11802;53.160;8.214;2024-01-30T07:31:12;22.83;;;14.60;;
23266;SDS011;11802;53.160;8.214;2024-01-30T07:33:38;22.93;;;14.73;;
23266;SDS011;11802;53.160;8.214;2024-01-30T07:36:03;22.77;;;15.33;;
23266;SDS011;11802;53.160;8.214;2024-01-30T07:38:32;21.67;;;14.23;;
23266;SDS011;11802;53.160;8.214;2024-01-30T07:40:58;22.57;;;14.70;;
23266;SDS011;11802;53.160;8.214;2024-01-30T07:43:24;22.03;;;14.73;;
23266;SDS011;11802;53.160;8.214;2024-01-30T07:45:49;21.37;;;14.67;;
23266;SDS011;11802;53.160;8.214;2024-01-30T07:48:15;22.67;;;14.70;;
23266;SDS011;11802;53.160;8.214;2024-01-30T07:50:41;21.10;;;13.93;;
23266;SDS011;11802;53.160;8.214;2024-01-30T07:53:06;21.30;;;14.27;;
23266;SDS011;11802;53.160;8.214;2024-01-30T07:55:32;21.17;;;13.77;;
23266;SDS011;11802;53.160;8.214;2024-01-30T07:57:57;21.90;;;14.43;;
23266;SDS011;11802;53.160;8.214;2024-01-30T08:00:26;23.00;;;15.83;;
23266;SDS011;11802;53.160;8.214;2024-01-30T08:02:54;20.77;;;13.57;;
23266;SDS011;11802;53.160;8.214;2024-01-30T08:05:20;22.70;;;14.97;;
23266;SDS011;11802;53.160;8.214;2024-01-30T08:07:47;24.97;;;13.37;;
23266;SDS011;11802;53.160;8.214;2024-01-30T08:10:13;17.00;;;13.13;;
23266;SDS011;11802;53.160;8.214;2024-01-30T08:12:39;20.97;;;14.00;;
23266;SDS011;11802;53.160;8.214;2024-01-30T08:15:05;24.10;;;14.13;;
23266;SDS011;11802;53.160;8.214;2024-01-30T08:17:31;18.90;;;13.33;;
23266;SDS011;11802;53.160;8.214;2024-01-30T08:19:56;20.40;;;13.60;;
23266;SDS011;11802;53.160;8.214;2024-01-30T08:22:22;19.17;;;13.50;;
23266;SDS011;11802;53.160;8.214;2024-01-30T08:24:48;20.33;;;14.00;;
23266;SDS011;11802;53.160;8.214;2024-01-30T08:27:13;20.77;;;14.13;;
23266;SDS011;11802;53.160;8.214;2024-01-30T08:29:39;19.23;;;13.13;;
23266;SDS011;11802;53.160;8.214;2024-01-30T08:32:08;20.67;;;13.70;;
23266;SDS011;11802;53.160;8.214;2024-01-30T08:34:40;20.80;;;13.73;;
23266;SDS011;11802;53.160;8.214;2024-01-30T08:37:05;19.53;;;13.57;;
23266;SDS011;11802;53.160;8.214;2024-01-30T08:39:31;21.67;;;14.07;;
23266;SDS011;11802;53.160;8.214;2024-01-30T08:41:57;20.33;;;13.73;;
23266;SDS011;11802;53.160;8.214;2024-01-30T08:44:23;21.17;;;13.80;;
23266;SDS011;11802;53.160;8.214;2024-01-30T08:46:48;22.17;;;13.70;;
23266;SDS011;11802;53.160;8.214;2024-01-30T08:49:16;20.23;;;12.67;;
23266;SDS011;11802;53.160;8.214;2024-01-30T08:51:42;20.53;;;12.77;;
23266;SDS011;11802;53.160;8.214;2024-01-30T08:54:07;20.33;;;12.83;;
23266;SDS011;11802;53.160;8.214;2024-01-30T08:56:33;21.07;;;13.07;;
23266;SDS011;11802;53.160;8.214;2024-01-30T08:58:59;17.23;;;11.97;;
23266;SDS011;11802;53.160;8.214;2024-01-30T09:01:24;20.57;;;12.33;;
23266;SDS011;11802;53.160;8.214;2024-01-30T09:03:50;20.10;;;12.93;;
23266;SDS011;11802;53.160;8.214;2024-01-30T09:06:16;17.97;;;11.00;;
23266;SDS011;11802;53.160;8.214;2024-01-30T09:08:41;17.83;;;10.97;;
23266;SDS011;11802;53.160;8.214;2024-01-30T09:11:11;23.57;;;12.53;;
23266;SDS011;11802;53.160;8.214;2024-01-30T09:13:38;19.87;;;12.13;;
23266;SDS011;11802;53.160;8.214;2024-01-30T09:16:04;21.17;;;11.70;;
23266;SDS011;11802;53.160;8.214;2024-01-30T09:18:30;19.70;;;12.13;;
23266;SDS011;11802;53.160;8.214;2024-01-30T09:20:56;23.07;;;12.40;;
23266;SDS011;11802;53.160;8.214;2024-01-30T09:23:21;22.07;;;12.27;;
23266;SDS011;11802;53.160;8.214;2024-01-30T09:25:47;18.77;;;11.37;;
23266;SDS011;11802;53.160;8.214;2024-01-30T09:28:13;21.77;;;12.50;;
23266;SDS011;11802;53.160;8.214;2024-01-30T09:30:39;22.13;;;11.60;;
23266;SDS011;11802;53.160;8.214;2024-01-30T09:33:04;18.23;;;11.33;;
23266;SDS011;11802;53.160;8.214;2024-01-30T09:35:31;18.90;;;12.17;;
23266;SDS011;11802;53.160;8.214;2024-01-30T09:37:57;16.60;;;10.53;;
23266;SDS011;11802;53.160;8.214;2024-01-30T09:40:23;15.63;;;9.97;;
23266;SDS011;11802;53.160;8.214;2024-01-30T09:42:52;21.50;;;11.20;;
23266;SDS011;11802;53.160;8.214;2024-01-30T09:45:21;18.13;;;10.20;;
23266;SDS011;11802;53.160;8.214;2024-01-30T09:47:49;18.60;;;10.37;;
23266;SDS011;11802;53.160;8.214;2024-01-30T09:50:18;16.20;;;10.87;;
23266;SDS011;11802;53.160;8.214;2024-01-30T09:52:45;16.13;;;10.67;;
23266;SDS011;11802;53.160;8.214;2024-01-30T09:55:11;16.90;;;9.97;;
23266;SDS011;11802;53.160;8.214;2024-01-30T09:57:37;18.27;;;9.70;;
23266;SDS011;11802;53.160;8.214;2024-01-30T10:00:05;20.20;;;10.20;;
23266;SDS011;11802;53.160;8.214;2024-01-30T10:02:35;15.67;;;10.03;;
23266;SDS011;11802;53.160;8.214;2024-01-30T10:05:01;17.57;;;10.80;;
23266;SDS011;11802;53.160;8.214;2024-01-30T10:07:27;17.53;;;10.93;;
23266;SDS011;11802;53.160;8.214;2024-01-30T10:09:53;17.67;;;10.57;;
23266;SDS011;11802;53.160;8.214;2024-01-30T10:12:21;17.63;;;10.00;;
23266;SDS011;11802;53.160;8.214;2024-01-30T10:14:47;17.17;;;10.80;;
23266;SDS011;11802;53.160;8.214;2024-01-30T10:17:13;15.70;;;10.37;;
23266;SDS011;11802;53.160;8.214;2024-01-30T10:19:39;17.20;;;11.67;;
23266;SDS011;11802;53.160;8.214;2024-01-30T10:22:06;17.03;;;10.90;;
23266;SDS011;11802;53.160;8.214;2024-01-30T10:24:35;18.43;;;10.80;;
23266;SDS011;11802;53.160;8.214;2024-01-30T10:27:01;17.23;;;10.67;;
23266;SDS011;11802;53.160;8.214;2024-01-30T10:29:27;18.93;;;10.67;;
23266;SDS011;11802;53.160;8.214;2024-01-30T10:32:02;15.27;;;9.90;;
23266;SDS011;11802;53.160;8.214;2024-01-30T10:34:30;17.50;;;10.17;;
23266;SDS011;11802;53.160;8.214;2024-01-30T10:37:17;15.03;;;10.10;;
23266;SDS011;11802;53.160;8.214;2024-01-30T10:42:56;14.97;;;9.33;;
23266;SDS011;11802;53.160;8.214;2024-01-30T10:45:54;15.77;;;9.57;;
23266;SDS011;11802;53.160;8.214;2024-01-30T10:48:22;14.20;;;10.00;;
23266;SDS011;11802;53.160;8.214;2024-01-30T10:50:51;13.27;;;9.23;;
23266;SDS011;11802;53.160;8.214;2024-01-30T10:53:20;15.67;;;9.83;;
23266;SDS011;11802;53.160;8.214;2024-01-30T10:55:47;15.90;;;9.27;;
23266;SDS011;11802;53.160;8.214;2024-01-30T10:58:16;15.83;;;9.30;;
23266;SDS011;11802;53.160;8.214;2024-01-30T11:00:42;13.83;;;8.63;;
23266;SDS011;11802;53.160;8.214;2024-01-30T11:03:09;15.10;;;9.47;;
23266;SDS011;11802;53.160;8.214;2024-01-30T11:05:35;15.83;;;9.87;;
23266;SDS011;11802;53.160;8.214;2024-01-30T11:08:10;17.63;;;9.83;;
23266;SDS011;11802;53.160;8.214;2024-01-30T11:10:48;13.67;;;8.47;;
23266;SDS011;11802;53.160;8.214;2024-01-30T11:13:14;12.87;;;8.97;;
23266;SDS011;11802;53.160;8.214;2024-01-30T11:15:40;13.83;;;9.40;;
23266;SDS011;11802;53.160;8.214;2024-01-30T11:18:06;14.23;;;9.27;;
23266;SDS011;11802;53.160;8.214;2024-01-30T11:20:31;12.13;;;8.93;;
23266;SDS011;11802;53.160;8.214;2024-01-30T11:22:58;15.40;;;9.67;;
23266;SDS011;11802;53.160;8.214;2024-01-30T11:25:25;16.53;;;10.20;;
23266;SDS011;11802;53.160;8.214;2024-01-30T11:27:52;19.50;;;10.50;;
23266;SDS011;11802;53.160;8.214;2024-01-30T11:33:10;16.10;;;9.30;;
23266;SDS011;11802;53.160;8.214;2024-01-30T11:35:40;15.53;;;9.10;;
23266;SDS011;11802;53.160;8.214;2024-01-30T11:38:07;17.90;;;8.67;;
23266;SDS011;11802;53.160;8.214;2024-01-30T11:40:34;15.60;;;9.63;;
23266;SDS011;11802;53.160;8.214;2024-01-30T11:43:02;15.13;;;9.63;;
23266;SDS011;11802;53.160;8.214;2024-01-30T11:45:32;14.03;;;9.17;;
23266;SDS011;11802;53.160;8.214;2024-01-30T11:47:58;15.27;;;9.53;;
23266;SDS011;11802;53.160;8.214;2024-01-30T11:50:30;16.53;;;10.23;;
23266;SDS011;11802;53.160;8.214;2024-01-30T11:52:57;13.97;;;9.20;;
23266;SDS011;11802;53.160;8.214;2024-01-30T11:55:24;19.37;;;10.43;;
23266;SDS011;11802;53.160;8.214;2024-01-30T11:57:50;12.13;;;7.83;;
23266;SDS011;11802;53.160;8.214;2024-01-30T12:00:19;16.00;;;9.53;;
23266;SDS011;11802;53.160;8.214;2024-01-30T12:02:49;15.70;;;9.30;;
23266;SDS011;11802;53.160;8.214;2024-01-30T12:05:16;15.07;;;9.57;;
23266;SDS011;11802;53.160;8.214;2024-01-30T12:07:44;14.87;;;10.27;;
23266;SDS011;11802;53.160;8.214;2024-01-30T12:10:11;13.77;;;9.87;;
23266;SDS011;11802;53.160;8.214;2024-01-30T12:12:38;14.20;;;8.93;;
23266;SDS011;11802;53.160;8.214;2024-01-30T12:15:06;14.67;;;8.87;;
23266;SDS011;11802;53.160;8.214;2024-01-30T12:17:33;15.80;;;10.03;;
23266;SDS011;11802;53.160;8.214;2024-01-30T12:20:12;16.70;;;9.53;;
23266;SDS011;11802;53.160;8.214;2024-01-30T12:22:39;13.63;;;9.20;;
23266;SDS011;11802;53.160;8.214;2024-01-30T12:25:15;16.10;;;10.43;;
23266;SDS011;11802;53.160;8.214;2024-01-30T12:27:45;13.63;;;9.43;;
23266;SDS011;11802;53.160;8.214;2024-01-30T12:30:15;16.07;;;8.93;;
23266;SDS011;11802;53.160;8.214;2024-01-30T12:32:43;18.83;;;9.00;;
23266;SDS011;11802;53.160;8.214;2024-01-30T12:35:13;14.57;;;8.63;;
23266;SDS011;11802;53.160;8.214;2024-01-30T12:37:40;18.43;;;9.67;;
23266;SDS011;11802;53.160;8.214;2024-01-30T12:40:09;16.80;;;9.00;;
23266;SDS011;11802;53.160;8.214;2024-01-30T12:42:36;14.90;;;8.43;;
23266;SDS011;11802;53.160;8.214;2024-01-30T12:45:02;13.80;;;9.40;;
23266;SDS011;11802;53.160;8.214;2024-01-30T12:47:29;17.10;;;9.13;;
23266;SDS011;11802;53.160;8.214;2024-01-30T12:49:55;16.03;;;9.13;;
23266;SDS011;11802;53.160;8.214;2024-01-30T12:52:21;14.80;;;9.33;;
23266;SDS011;11802;53.160;8.214;2024-01-30T12:54:48;14.47;;;9.20;;
23266;SDS011;11802;53.160;8.214;2024-01-30T12:57:14;16.23;;;8.00;;
23266;SDS011;11802;53.160;8.214;2024-01-30T12:59:40;13.90;;;8.97;;
23266;SDS011;11802;53.160;8.214;2024-01-30T13:02:05;15.90;;;9.53;;
23266;SDS011;11802;53.160;8.214;2024-01-30T13:04:32;17.73;;;9.60;;
23266;SDS011;11802;53.160;8.214;2024-01-30T13:06:58;15.27;;;9.23;;
23266;SDS011;11802;53.160;8.214;2024-01-30T13:09:25;17.33;;;9.63;;
23266;SDS011;11802;53.160;8.214;2024-01-30T13:11:51;15.10;;;10.00;;
23266;SDS011;11802;53.160;8.214;2024-01-30T13:14:17;16.60;;;9.00;;
23266;SDS011;11802;53.160;8.214;2024-01-30T13:16:43;18.63;;;9.87;;
23266;SDS011;11802;53.160;8.214;2024-01-30T13:19:09;14.90;;;9.13;;
23266;SDS011;11802;53.160;8.214;2024-01-30T13:21:34;16.43;;;9.07;;
23266;SDS011;11802;53.160;8.214;2024-01-30T13:24:00;18.83;;;10.50;;
23266;SDS011;11802;53.160;8.214;2024-01-30T13:26:25;16.40;;;9.57;;
23266;SDS011;11802;53.160;8.214;2024-01-30T13:28:53;17.80;;;9.47;;
23266;SDS011;11802;53.160;8.214;2024-01-30T13:31:19;19.60;;;9.13;;
23266;SDS011;11802;53.160;8.214;2024-01-30T13:33:45;14.70;;;8.73;;
23266;SDS011;11802;53.160;8.214;2024-01-30T13:36:11;17.13;;;8.70;;
23266;SDS011;11802;53.160;8.214;2024-01-30T13:38:37;14.10;;;9.67;;
23266;SDS011;11802;53.160;8.214;2024-01-30T13:41:04;17.97;;;10.53;;
23266;SDS011;11802;53.160;8.214;2024-01-30T13:43:30;14.20;;;8.70;;
23266;SDS011;11802;53.160;8.214;2024-01-30T13:45:56;17.07;;;9.93;;
23266;SDS011;11802;53.160;8.214;2024-01-30T13:48:21;15.13;;;9.07;;
23266;SDS011;11802;53.160;8.214;2024-01-30T13:50:47;16.80;;;9.10;;
23266;SDS011;11802;53.160;8.214;2024-01-30T13:53:13;16.40;;;9.63;;
23266;SDS011;11802;53.160;8.214;2024-01-30T13:55:39;15.67;;;9.77;;
23266;SDS011;11802;53.160;8.214;2024-01-30T13:58:05;14.47;;;9.37;;
23266;SDS011;11802;53.160;8.214;2024-01-30T14:00:31;14.97;;;9.20;;
23266;SDS011;11802;53.160;8.214;2024-01-30T14:02:57;16.70;;;9.40;;
23266;SDS011;11802;53.160;8.214;2024-01-30T14:05:45;16.07;;;9.47;;
23266;SDS011;11802;53.160;8.214;2024-01-30T14:08:35;19.50;;;9.93;;
23266;SDS011;11802;53.160;8.214;2024-01-30T14:11:01;15.03;;;9.27;;
23266;SDS011;11802;53.160;8.214;2024-01-30T14:13:26;15.70;;;9.20;;
23266;SDS011;11802;53.160;8.214;2024-01-30T14:15:52;18.03;;;9.03;;
23266;SDS011;11802;53.160;8.214;2024-01-30T14:18:18;16.13;;;8.83;;
23266;SDS011;11802;53.160;8.214;2024-01-30T14:20:44;15.03;;;9.53;;
23266;SDS011;11802;53.160;8.214;2024-01-30T14:23:10;14.53;;;8.70;;
23266;SDS011;11802;53.160;8.214;2024-01-30T14:25:35;12.13;;;9.03;;